createdAt,value
2022-12-22T00:01:14.965Z,0.73
2022-12-22T00:02:40.253Z,0.74
2022-12-22T00:04:02.472Z,0.74
2022-12-22T00:05:33.307Z,0.73
2022-12-22T00:06:54.433Z,0.72
2022-12-22T00:08:16.589Z,0.74
2022-12-22T00:09:38.292Z,0.74
2022-12-22T00:11:00.190Z,0.76
2022-12-22T00:12:22.831Z,0.78
2022-12-22T00:13:45.019Z,0.80
2022-12-22T00:15:09.082Z,0.81
2022-12-22T00:16:31.051Z,0.80
2022-12-22T00:17:53.208Z,0.80
2022-12-22T00:19:17.777Z,0.83
2022-12-22T00:20:40.048Z,0.78
2022-12-22T00:22:01.931Z,0.82
2022-12-22T00:23:23.750Z,0.83
2022-12-22T00:24:49.341Z,0.78
2022-12-22T00:26:11.949Z,0.79
2022-12-22T00:27:45.839Z,0.83
2022-12-22T00:29:08.003Z,0.84
2022-12-22T00:30:34.432Z,0.84
2022-12-22T00:31:55.830Z,0.84
2022-12-22T00:33:20.283Z,0.85
2022-12-22T00:34:42.311Z,0.86
2022-12-22T00:36:03.963Z,0.82
2022-12-22T00:37:30.278Z,0.87
2022-12-22T00:38:51.816Z,0.85
2022-12-22T00:40:13.772Z,0.85
2022-12-22T00:41:36.018Z,0.86
2022-12-22T00:42:57.441Z,0.87
2022-12-22T00:44:19.462Z,0.86
2022-12-22T00:45:41.556Z,0.87
2022-12-22T00:47:05.649Z,0.85
2022-12-22T00:48:42.945Z,0.83
2022-12-22T00:50:07.513Z,0.83
2022-12-22T00:51:30.766Z,0.83
2022-12-22T00:52:56.108Z,0.83
2022-12-22T00:54:17.485Z,0.81
2022-12-22T00:55:45.537Z,0.78
2022-12-22T00:57:06.840Z,0.81
2022-12-22T00:58:34.613Z,0.81
2022-12-22T00:59:56.476Z,0.81
2022-12-22T01:01:17.749Z,0.79
2022-12-22T01:02:39.987Z,0.77
2022-12-22T01:04:01.971Z,0.76
2022-12-22T01:05:24.068Z,0.78
2022-12-22T01:06:50.284Z,0.68
2022-12-22T01:08:12.183Z,0.78
2022-12-22T01:09:34.260Z,0.77
2022-12-22T01:10:56.379Z,0.74
2022-12-22T01:12:18.315Z,0.71
2022-12-22T01:13:40.079Z,0.73
2022-12-22T01:15:02.268Z,0.72
2022-12-22T01:16:24.513Z,0.72
2022-12-22T01:17:46.402Z,0.66
2022-12-22T01:19:08.848Z,0.72
2022-12-22T01:20:31.563Z,0.67
2022-12-22T01:21:54.988Z,0.75
2022-12-22T01:23:16.532Z,0.75
2022-12-22T01:24:38.783Z,0.76
2022-12-22T01:26:00.707Z,0.77
2022-12-22T01:27:23.947Z,0.79
2022-12-22T01:28:46.021Z,0.82
2022-12-22T01:30:08.003Z,0.82
2022-12-22T01:31:43.337Z,0.81
2022-12-22T01:33:05.348Z,0.83
2022-12-22T01:34:27.801Z,0.83
2022-12-22T01:35:53.003Z,0.84
2022-12-22T01:37:14.504Z,0.84
2022-12-22T01:38:38.251Z,0.85
2022-12-22T01:40:00.399Z,0.84
2022-12-22T01:41:23.917Z,0.85
2022-12-22T01:42:47.102Z,0.83
2022-12-22T01:44:09.125Z,0.84
2022-12-22T01:45:51.924Z,0.83
2022-12-22T01:47:49.139Z,0.84
2022-12-22T01:49:11.115Z,0.80
2022-12-22T01:50:34.951Z,0.84
2022-12-22T01:51:56.693Z,0.85
2022-12-22T01:53:20.107Z,0.85
2022-12-22T01:54:42.266Z,0.86
2022-12-22T01:56:04.391Z,0.87
2022-12-22T01:57:25.888Z,0.87
2022-12-22T01:58:55.625Z,0.87
2022-12-22T02:00:17.850Z,0.89
2022-12-22T02:01:39.884Z,0.86
2022-12-22T02:03:02.218Z,0.87
2022-12-22T02:04:24.631Z,0.86
2022-12-22T02:05:46.129Z,0.86
2022-12-22T02:07:11.519Z,0.86
2022-12-22T02:08:42.754Z,0.85
2022-12-22T02:10:42.746Z,0.86
2022-12-22T02:12:39.116Z,0.85
2022-12-22T02:14:27.762Z,0.84
2022-12-22T02:16:11.892Z,0.83
2022-12-22T02:17:40.673Z,0.81
2022-12-22T02:19:16.585Z,0.78
2022-12-22T02:20:38.240Z,0.78
2022-12-22T02:22:40.406Z,0.79
2022-12-22T02:24:08.675Z,0.80
2022-12-22T02:25:37.775Z,0.81
2022-12-22T02:27:09.762Z,0.84
2022-12-22T02:28:33.781Z,0.83
2022-12-22T02:30:02.004Z,0.84
2022-12-22T02:31:26.247Z,0.85
2022-12-22T02:32:54.375Z,0.88
2022-12-22T02:34:15.530Z,0.90
2022-12-22T02:35:38.057Z,0.89
2022-12-22T02:37:24.377Z,0.91
2022-12-22T02:38:46.189Z,0.89
2022-12-22T02:40:21.466Z,0.92
2022-12-22T02:41:56.934Z,0.90
2022-12-22T02:43:47.173Z,0.91
2022-12-22T02:45:26.677Z,0.90
2022-12-22T02:46:58.715Z,0.90
2022-12-22T02:48:30.889Z,0.89
2022-12-22T02:50:05.703Z,0.86
2022-12-22T02:51:37.947Z,0.88
2022-12-22T02:53:01.619Z,0.89
2022-12-22T02:54:24.854Z,0.89
2022-12-22T02:55:47.181Z,0.91
2022-12-22T02:57:09.219Z,0.90
2022-12-22T02:58:33.207Z,0.89
2022-12-22T02:59:55.407Z,0.91
2022-12-22T03:01:18.100Z,0.92
2022-12-22T03:02:40.796Z,0.91
2022-12-22T03:04:02.945Z,0.92
2022-12-22T03:05:24.719Z,0.92
2022-12-22T03:06:46.761Z,0.92
2022-12-22T03:08:08.917Z,0.91
2022-12-22T03:09:30.856Z,0.90
2022-12-22T03:10:52.517Z,0.92
2022-12-22T03:12:13.923Z,0.92
2022-12-22T03:13:35.552Z,0.93
2022-12-22T03:14:57.668Z,0.94
2022-12-22T03:16:19.406Z,0.96
2022-12-22T03:17:41.102Z,0.99
2022-12-22T03:19:02.502Z,0.98
2022-12-22T03:20:24.619Z,0.96
2022-12-22T03:21:45.931Z,0.96
2022-12-22T03:23:07.659Z,0.94
2022-12-22T03:24:29.373Z,0.93
2022-12-22T03:26:11.364Z,0.93
2022-12-22T03:27:14.088Z,0.91
2022-12-22T03:28:17.481Z,0.89
2022-12-22T03:29:20.306Z,0.87
2022-12-22T03:30:23.002Z,0.89
2022-12-22T03:31:26.159Z,0.88
2022-12-22T03:32:29.306Z,0.89
2022-12-22T03:33:33.005Z,0.89
2022-12-22T03:34:35.730Z,0.90
2022-12-22T03:35:38.853Z,0.88
2022-12-22T03:36:41.931Z,0.88
2022-12-22T03:37:44.794Z,0.89
2022-12-22T03:38:48.114Z,0.87
2022-12-22T03:39:50.868Z,0.89
2022-12-22T03:40:53.973Z,0.91
2022-12-22T03:42:15.863Z,0.91
2022-12-22T03:43:38.308Z,0.94
2022-12-22T03:44:59.512Z,0.96
2022-12-22T03:46:18.195Z,0.95
2022-12-22T03:47:21.257Z,0.97
2022-12-22T03:48:24.849Z,0.97
2022-12-22T03:49:28.118Z,0.98
2022-12-22T03:50:30.879Z,0.99
2022-12-22T03:51:34.872Z,0.97
2022-12-22T03:52:38.188Z,0.99
2022-12-22T03:53:40.852Z,1.01
2022-12-22T03:54:44.132Z,0.99
2022-12-22T03:55:46.823Z,1.02
2022-12-22T03:56:52.106Z,1.00
2022-12-22T03:57:55.889Z,1.01
2022-12-22T03:58:59.867Z,0.99
2022-12-22T04:00:04.053Z,1.02
2022-12-22T04:01:14.592Z,1.01
2022-12-22T04:02:17.806Z,1.02
2022-12-22T04:03:20.813Z,1.01
2022-12-22T04:04:25.964Z,1.01
2022-12-22T04:05:28.643Z,1.01
2022-12-22T04:06:31.617Z,1.03
2022-12-22T04:07:34.586Z,1.05
2022-12-22T04:08:37.757Z,1.04
2022-12-22T04:10:01.111Z,1.03
2022-12-22T04:11:22.741Z,1.03
2022-12-22T04:12:44.437Z,1.04
2022-12-22T04:13:47.479Z,1.04
2022-12-22T04:14:50.128Z,1.06
2022-12-22T04:15:53.116Z,1.06
2022-12-22T04:16:55.888Z,1.07
2022-12-22T04:17:59.869Z,1.05
2022-12-22T04:19:03.617Z,1.04
2022-12-22T04:20:08.512Z,1.04
2022-12-22T04:21:11.858Z,1.04
2022-12-22T04:22:14.633Z,1.03
2022-12-22T04:23:17.687Z,1.03
2022-12-22T04:24:20.786Z,1.06
2022-12-22T04:25:24.644Z,1.06
2022-12-22T04:26:28.453Z,1.06
2022-12-22T04:27:32.070Z,1.01
2022-12-22T04:28:35.286Z,1.05
2022-12-22T04:29:38.588Z,1.01
2022-12-22T04:30:41.509Z,1.06
2022-12-22T04:31:44.778Z,1.07
2022-12-22T04:32:47.525Z,1.08
2022-12-22T04:33:51.913Z,1.08
2022-12-22T04:34:54.899Z,1.08
2022-12-22T04:35:57.617Z,1.11
2022-12-22T04:39:19.723Z,1.12
2022-12-22T04:40:22.830Z,1.14
2022-12-22T04:41:26.785Z,1.14
2022-12-22T04:42:29.793Z,1.09
2022-12-22T04:43:32.793Z,1.16
2022-12-22T04:44:35.547Z,1.14
2022-12-22T04:45:38.691Z,1.16
2022-12-22T04:46:41.573Z,1.17
2022-12-22T04:47:45.006Z,1.18
2022-12-22T04:48:48.776Z,1.16
2022-12-22T04:49:55.667Z,1.17
2022-12-22T04:51:00.369Z,1.19
2022-12-22T04:52:03.106Z,1.19
2022-12-22T04:53:06.044Z,1.19
2022-12-22T04:54:09.796Z,1.17
2022-12-22T04:55:12.460Z,1.18
2022-12-22T04:56:15.536Z,1.18
2022-12-22T04:57:21.746Z,1.17
2022-12-22T04:58:24.796Z,1.12
2022-12-22T04:59:27.571Z,1.18
2022-12-22T05:00:30.296Z,1.17
2022-12-22T05:01:33.545Z,1.15
2022-12-22T05:02:36.633Z,1.13
2022-12-22T05:03:39.920Z,1.16
2022-12-22T05:04:43.222Z,1.15
2022-12-22T05:05:46.295Z,1.15
2022-12-22T05:06:49.632Z,1.16
2022-12-22T05:07:52.464Z,1.16
2022-12-22T05:08:55.251Z,1.16
2022-12-22T05:09:58.219Z,1.17
2022-12-22T05:11:02.960Z,1.16
2022-12-22T05:12:26.606Z,1.16
2022-12-22T05:13:31.183Z,1.14
2022-12-22T05:14:34.023Z,1.17
2022-12-22T05:15:37.262Z,1.17
2022-12-22T05:16:40.083Z,1.16
2022-12-22T05:17:43.121Z,1.18
2022-12-22T05:18:46.499Z,1.16
2022-12-22T05:19:49.292Z,1.19
2022-12-22T05:20:52.695Z,1.19
2022-12-22T05:21:55.648Z,1.19
2022-12-22T05:22:59.799Z,1.18
2022-12-22T05:24:02.594Z,1.16
2022-12-22T05:25:05.829Z,1.17
2022-12-22T05:26:09.194Z,1.16
2022-12-22T05:27:12.279Z,1.16
2022-12-22T05:28:16.720Z,1.16
2022-12-22T05:29:19.514Z,1.16
2022-12-22T05:30:22.355Z,1.17
2022-12-22T05:31:26.636Z,1.17
2022-12-22T05:32:29.527Z,1.17
2022-12-22T05:33:33.423Z,1.17
2022-12-22T05:34:36.206Z,1.18
2022-12-22T05:35:38.955Z,1.17
2022-12-22T05:36:41.914Z,1.19
2022-12-22T05:37:44.728Z,1.17
2022-12-22T05:38:48.437Z,1.18
2022-12-22T05:39:51.246Z,1.18
2022-12-22T05:40:59.776Z,1.19
2022-12-22T05:42:06.353Z,1.19
2022-12-22T05:43:10.280Z,1.19
2022-12-22T05:44:13.432Z,1.19
2022-12-22T05:45:20.831Z,1.19
2022-12-22T05:46:24.143Z,1.19
2022-12-22T05:47:26.944Z,1.20
2022-12-22T05:48:37.004Z,1.21
2022-12-22T05:49:41.369Z,1.22
2022-12-22T05:50:44.395Z,1.18
2022-12-22T05:51:48.379Z,1.21
2022-12-22T05:52:51.865Z,1.20
2022-12-22T05:53:55.363Z,1.20
2022-12-22T05:54:59.064Z,1.18
2022-12-22T05:56:02.522Z,1.18
2022-12-22T05:57:09.953Z,1.18
2022-12-22T05:58:13.571Z,1.18
2022-12-22T05:59:16.600Z,1.18
2022-12-22T06:00:20.295Z,1.17
2022-12-22T06:01:23.577Z,1.16
2022-12-22T06:02:26.733Z,1.15
2022-12-22T06:03:30.648Z,1.17
2022-12-22T06:04:33.519Z,1.16
2022-12-22T06:05:36.604Z,1.16
2022-12-22T06:06:39.776Z,1.14
2022-12-22T06:07:42.662Z,1.13
2022-12-22T06:08:45.684Z,1.13
2022-12-22T06:09:50.780Z,1.12
2022-12-22T06:10:55.531Z,1.07
2022-12-22T06:11:58.763Z,1.11
2022-12-22T06:13:02.345Z,1.11
2022-12-22T06:14:05.238Z,1.13
2022-12-22T06:15:10.764Z,1.13
2022-12-22T06:16:13.693Z,1.12
2022-12-22T06:17:16.825Z,1.13
2022-12-22T06:18:23.234Z,1.13
2022-12-22T06:19:29.427Z,1.13
2022-12-22T06:20:32.440Z,1.10
2022-12-22T06:21:35.168Z,1.11
2022-12-22T06:22:40.062Z,1.08
2022-12-22T06:23:44.896Z,1.08
2022-12-22T06:24:49.901Z,1.09
2022-12-22T06:25:57.716Z,1.08
2022-12-22T06:27:00.907Z,1.09
2022-12-22T06:28:04.189Z,1.08
2022-12-22T06:29:10.449Z,1.07
2022-12-22T06:30:13.876Z,1.07
2022-12-22T06:31:16.741Z,1.09
2022-12-22T06:32:19.715Z,1.09
2022-12-22T06:33:22.827Z,1.10
2022-12-22T06:34:25.651Z,1.10
2022-12-22T06:35:28.874Z,1.11
2022-12-22T06:36:31.857Z,1.13
2022-12-22T06:37:34.679Z,1.06
2022-12-22T06:38:37.858Z,1.11
2022-12-22T06:39:40.619Z,1.03
2022-12-22T06:40:43.381Z,1.10
2022-12-22T06:42:04.684Z,1.10
2022-12-22T06:43:09.755Z,1.09
2022-12-22T06:44:14.006Z,1.08
2022-12-22T06:45:16.803Z,1.08
2022-12-22T06:46:19.529Z,1.11
2022-12-22T06:47:23.009Z,1.10
2022-12-22T06:48:25.837Z,1.11
2022-12-22T06:49:28.975Z,1.12
2022-12-22T06:50:31.796Z,1.11
2022-12-22T06:51:34.626Z,1.09
2022-12-22T06:52:37.841Z,1.10
2022-12-22T06:53:40.971Z,1.08
2022-12-22T06:54:44.172Z,1.10
2022-12-22T06:55:46.988Z,1.11
2022-12-22T06:56:49.753Z,1.12
2022-12-22T06:57:52.671Z,1.12
2022-12-22T06:58:56.378Z,1.10
2022-12-22T07:00:00.169Z,1.10
2022-12-22T07:01:04.085Z,1.16
2022-12-22T07:02:11.176Z,1.19
2022-12-22T07:03:15.145Z,1.20
2022-12-22T07:04:22.564Z,1.21
2022-12-22T07:05:32.118Z,1.23
2022-12-22T07:06:36.504Z,1.25
2022-12-22T07:07:48.290Z,1.26
2022-12-22T07:08:52.193Z,1.27
2022-12-22T07:09:58.846Z,1.22
2022-12-22T07:11:04.080Z,1.28
2022-12-22T07:12:09.141Z,1.28
2022-12-22T07:13:22.089Z,1.28
2022-12-22T07:14:24.891Z,1.31
2022-12-22T07:15:27.621Z,1.27
2022-12-22T07:16:30.742Z,1.33
2022-12-22T07:17:33.740Z,1.34
2022-12-22T07:18:42.192Z,1.39
2022-12-22T07:19:47.252Z,1.41
2022-12-22T07:20:51.377Z,1.44
2022-12-22T07:21:57.461Z,1.46
2022-12-22T07:23:00.959Z,1.48
2022-12-22T07:24:04.096Z,1.44
2022-12-22T07:25:08.015Z,1.51
2022-12-22T07:26:12.942Z,1.53
2022-12-22T07:27:16.206Z,1.43
2022-12-22T07:28:21.349Z,1.58
2022-12-22T07:29:24.346Z,1.62
2022-12-22T07:30:27.447Z,1.65
2022-12-22T07:31:30.916Z,1.65
2022-12-22T07:32:34.154Z,1.64
2022-12-22T07:33:37.263Z,1.63
2022-12-22T07:34:41.637Z,1.57
2022-12-22T07:35:44.494Z,1.67
2022-12-22T07:36:47.258Z,1.62
2022-12-22T07:37:50.554Z,1.72
2022-12-22T07:38:53.456Z,1.74
2022-12-22T07:39:56.269Z,1.74
2022-12-22T07:41:04.611Z,1.76
2022-12-22T07:42:30.924Z,1.78
2022-12-22T07:43:34.528Z,1.70
2022-12-22T07:44:37.317Z,1.76
2022-12-22T07:45:40.152Z,1.73
2022-12-22T07:46:43.029Z,1.74
2022-12-22T07:47:47.010Z,1.73
2022-12-22T07:49:08.825Z,1.75
2022-12-22T07:50:26.195Z,1.76
2022-12-22T07:51:36.360Z,1.78
2022-12-22T07:52:39.053Z,1.77
2022-12-22T07:53:41.822Z,1.78
2022-12-22T07:54:44.870Z,1.81
2022-12-22T07:55:47.612Z,1.81
2022-12-22T07:56:50.407Z,1.82
2022-12-22T07:57:54.242Z,1.85
2022-12-22T07:58:57.487Z,1.84
2022-12-22T08:00:01.348Z,1.85
2022-12-22T08:01:04.264Z,1.87
2022-12-22T08:02:11.213Z,1.85
2022-12-22T08:03:14.309Z,1.86
2022-12-22T08:04:17.585Z,1.85
2022-12-22T08:05:21.369Z,1.86
2022-12-22T08:06:24.742Z,1.88
2022-12-22T08:07:27.915Z,1.87
2022-12-22T08:08:30.946Z,1.90
2022-12-22T08:09:35.017Z,1.92
2022-12-22T08:10:37.751Z,1.93
2022-12-22T08:11:40.592Z,1.92
2022-12-22T08:12:43.870Z,1.94
2022-12-22T08:13:46.900Z,1.93
2022-12-22T08:14:49.681Z,1.92
2022-12-22T08:15:52.622Z,1.95
2022-12-22T08:16:55.683Z,1.95
2022-12-22T08:17:58.841Z,1.96
2022-12-22T08:19:02.996Z,1.96
2022-12-22T08:20:06.790Z,1.98
2022-12-22T08:21:09.855Z,2.01
2022-12-22T08:22:12.621Z,2.01
2022-12-22T08:23:15.663Z,2.04
2022-12-22T08:24:18.368Z,2.05
2022-12-22T08:25:21.148Z,2.07
2022-12-22T08:26:38.319Z,2.09
2022-12-22T08:27:52.354Z,2.11
2022-12-22T08:29:02.522Z,2.14
2022-12-22T08:30:07.476Z,2.15
2022-12-22T08:31:10.973Z,2.15
2022-12-22T08:32:13.878Z,2.17
2022-12-22T08:33:16.816Z,2.18
2022-12-22T08:34:20.357Z,2.20
2022-12-22T08:35:23.280Z,2.20
2022-12-22T08:36:27.011Z,2.21
2022-12-22T08:37:33.837Z,2.18
2022-12-22T08:38:41.339Z,2.19
2022-12-22T08:39:49.824Z,2.14
2022-12-22T08:40:53.447Z,2.20
2022-12-22T08:41:56.391Z,2.18
2022-12-22T08:43:03.436Z,2.18
2022-12-22T08:44:06.281Z,2.18
2022-12-22T08:45:11.405Z,2.20
2022-12-22T08:46:14.184Z,2.20
2022-12-22T08:47:17.987Z,2.24
2022-12-22T08:48:20.891Z,2.24
2022-12-22T08:49:24.603Z,2.24
2022-12-22T08:50:27.658Z,2.25
2022-12-22T08:51:30.424Z,2.25
2022-12-22T08:52:33.293Z,2.24
2022-12-22T08:54:59.149Z,2.27
2022-12-22T08:56:02.292Z,2.28
2022-12-22T08:57:05.106Z,2.29
2022-12-22T08:58:08.611Z,2.29
2022-12-22T08:59:12.570Z,2.29
2022-12-22T09:00:15.920Z,2.31
2022-12-22T09:01:21.440Z,2.34
2022-12-22T09:02:24.543Z,2.34
2022-12-22T09:03:27.743Z,2.36
2022-12-22T09:04:32.264Z,2.33
2022-12-22T09:05:38.559Z,2.38
2022-12-22T09:06:41.993Z,2.40
2022-12-22T09:07:47.253Z,2.41
2022-12-22T09:09:02.108Z,2.41
2022-12-22T09:10:05.166Z,2.32
2022-12-22T09:11:08.046Z,2.40
2022-12-22T09:12:11.595Z,2.40
2022-12-22T09:13:14.930Z,2.39
2022-12-22T09:14:18.007Z,2.40
2022-12-22T09:15:20.801Z,2.41
2022-12-22T09:16:24.884Z,2.42
2022-12-22T09:17:28.103Z,2.42
2022-12-22T09:18:31.135Z,2.48
2022-12-22T09:19:34.440Z,2.49
2022-12-22T09:20:37.338Z,2.46
2022-12-22T09:21:40.231Z,2.51
2022-12-22T09:22:43.377Z,2.53
2022-12-22T09:23:46.159Z,2.55
2022-12-22T09:24:48.942Z,2.56
2022-12-22T09:25:52.168Z,2.58
2022-12-22T09:26:55.052Z,2.57
2022-12-22T09:27:58.177Z,2.46
2022-12-22T09:29:03.427Z,2.42
2022-12-22T09:30:07.710Z,2.38
2022-12-22T09:31:12.739Z,2.33
2022-12-22T09:32:15.824Z,2.33
2022-12-22T09:33:19.348Z,2.28
2022-12-22T09:34:22.361Z,2.25
2022-12-22T09:35:25.230Z,2.24
2022-12-22T09:36:30.399Z,2.22
2022-12-22T09:37:33.283Z,2.19
2022-12-22T09:38:42.502Z,2.15
2022-12-22T09:39:47.739Z,2.16
2022-12-22T09:40:52.081Z,2.11
2022-12-22T09:41:58.362Z,2.09
2022-12-22T09:43:03.790Z,2.12
2022-12-22T09:44:13.188Z,2.15
2022-12-22T09:45:20.287Z,2.14
2022-12-22T09:46:29.533Z,2.14
2022-12-22T09:47:38.904Z,2.16
2022-12-22T09:48:42.322Z,2.20
2022-12-22T09:49:45.602Z,2.22
2022-12-22T09:50:48.498Z,2.25
2022-12-22T09:51:56.195Z,2.27
2022-12-22T09:53:04.455Z,2.28
2022-12-22T09:54:12.528Z,2.31
2022-12-22T09:55:24.797Z,2.32
2022-12-22T09:56:28.994Z,2.40
2022-12-22T09:57:32.919Z,2.42
2022-12-22T09:58:36.115Z,2.45
2022-12-22T09:59:38.839Z,2.48
2022-12-22T10:00:43.347Z,2.48
2022-12-22T10:01:58.871Z,2.51
2022-12-22T10:03:14.264Z,2.54
2022-12-22T10:04:39.069Z,2.57
2022-12-22T10:06:01.747Z,2.67
2022-12-22T10:07:32.772Z,2.80
2022-12-22T10:08:40.860Z,2.82
2022-12-22T10:09:52.234Z,2.83
2022-12-22T10:10:56.882Z,2.88
2022-12-22T10:12:04.071Z,2.90
2022-12-22T10:13:16.123Z,2.95
2022-12-22T10:14:21.036Z,3.02
2022-12-22T10:15:25.971Z,3.11
2022-12-22T10:16:29.435Z,3.17
2022-12-22T10:17:34.190Z,3.20
2022-12-22T10:18:37.922Z,3.29
2022-12-22T10:19:40.704Z,3.35
2022-12-22T10:21:06.555Z,3.43
2022-12-22T10:22:31.397Z,3.48
2022-12-22T10:23:38.796Z,3.48
2022-12-22T10:24:41.842Z,3.45
2022-12-22T10:27:28.474Z,3.61
2022-12-22T10:28:44.804Z,3.63
2022-12-22T10:29:48.473Z,3.70
2022-12-22T10:31:21.155Z,3.75
2022-12-22T10:32:24.079Z,3.52
2022-12-22T10:33:34.116Z,3.46
2022-12-22T10:34:36.945Z,3.52
2022-12-22T10:35:50.035Z,3.62
2022-12-22T10:36:57.654Z,3.57
2022-12-22T10:38:21.814Z,3.52
2022-12-22T10:39:31.032Z,3.24
2022-12-22T10:40:43.801Z,3.06
2022-12-22T10:41:50.296Z,3.09
2022-12-22T10:42:56.016Z,3.10
2022-12-22T10:44:02.671Z,2.89
2022-12-22T10:45:05.985Z,2.84
2022-12-22T10:46:08.823Z,2.78
2022-12-22T10:47:20.716Z,2.78
2022-12-22T10:48:29.337Z,2.83
2022-12-22T10:50:48.603Z,2.70
2022-12-22T10:51:55.447Z,2.75
2022-12-22T10:52:59.102Z,2.57
2022-12-22T10:54:02.638Z,2.50
2022-12-22T10:55:22.381Z,2.56
2022-12-22T10:56:28.194Z,2.44
2022-12-22T10:57:31.480Z,2.43
2022-12-22T10:58:54.182Z,2.45
2022-12-22T11:00:00.559Z,2.42
2022-12-22T11:01:05.169Z,2.40
2022-12-22T11:02:28.809Z,2.40
2022-12-22T11:03:32.967Z,2.38
2022-12-22T11:04:36.171Z,2.44
2022-12-22T11:05:39.121Z,2.49
2022-12-22T11:06:45.093Z,2.51
2022-12-22T11:07:49.020Z,2.50
2022-12-22T11:08:52.231Z,2.49
2022-12-22T11:09:55.494Z,2.51
2022-12-22T11:11:07.226Z,2.50
2022-12-22T11:12:42.271Z,2.54
2022-12-22T11:13:48.062Z,2.50
2022-12-22T11:15:02.474Z,2.51
2022-12-22T11:16:17.470Z,2.48
2022-12-22T11:17:27.167Z,2.50
2022-12-22T11:18:49.373Z,2.45
2022-12-22T11:20:13.355Z,2.47
2022-12-22T11:21:24.299Z,2.46
2022-12-22T11:22:44.460Z,2.41
2022-12-22T11:24:02.900Z,2.38
2022-12-22T11:25:43.836Z,2.31
2022-12-22T11:27:05.363Z,2.23
2022-12-22T11:28:33.984Z,2.20
2022-12-22T11:30:01.037Z,2.21
2022-12-22T11:31:25.356Z,2.22
2022-12-22T11:32:47.141Z,2.17
2022-12-22T11:34:24.413Z,2.12
2022-12-22T11:35:33.597Z,2.12
2022-12-22T11:36:57.342Z,2.13
2022-12-22T11:38:32.967Z,2.15
2022-12-22T11:39:59.279Z,2.15
2022-12-22T11:41:24.900Z,2.12
2022-12-22T11:42:36.754Z,2.13
2022-12-22T11:44:18.961Z,2.08
2022-12-22T11:45:43.425Z,2.13
2022-12-22T11:47:12.229Z,2.17
2022-12-22T11:48:16.166Z,2.17
2022-12-22T11:49:40.646Z,2.18
2022-12-22T11:51:02.231Z,1.91
2022-12-22T11:52:34.271Z,2.20
2022-12-22T11:53:46.491Z,2.23
2022-12-22T11:55:00.108Z,2.21
2022-12-22T11:56:24.283Z,2.23
2022-12-22T11:57:41.522Z,2.16
2022-12-22T11:59:17.180Z,2.18
2022-12-22T12:00:28.398Z,2.18
2022-12-22T12:02:08.112Z,2.24
2022-12-22T12:03:29.116Z,2.19
2022-12-22T12:04:50.683Z,2.25
2022-12-22T12:06:15.079Z,2.31
2022-12-22T12:07:48.996Z,2.41
2022-12-22T12:09:02.824Z,2.40
2022-12-22T12:10:18.097Z,2.39
2022-12-22T12:11:34.330Z,2.44
2022-12-22T12:13:02.281Z,2.42
2022-12-22T12:14:31.060Z,2.39
2022-12-22T12:15:46.395Z,2.45
2022-12-22T12:17:00.481Z,2.42
2022-12-22T12:18:24.291Z,2.43
2022-12-22T12:19:29.602Z,2.37
2022-12-22T12:20:38.123Z,2.36
2022-12-22T12:21:54.889Z,2.41
2022-12-22T12:23:28.224Z,2.37
2022-12-22T12:24:47.904Z,2.34
2022-12-22T12:26:17.763Z,2.39
2022-12-22T12:27:35.630Z,2.43
2022-12-22T12:29:02.566Z,2.36
2022-12-22T12:30:37.555Z,2.31
2022-12-22T12:31:49.698Z,2.29
2022-12-22T12:33:05.385Z,2.21
2022-12-22T12:34:14.747Z,2.27
2022-12-22T12:35:36.671Z,2.25
2022-12-22T12:36:48.918Z,2.20
2022-12-22T12:38:01.523Z,2.24
2022-12-22T12:39:10.242Z,2.23
2022-12-22T12:40:30.267Z,2.22
2022-12-22T12:41:55.292Z,2.21
2022-12-22T12:43:00.160Z,2.16
2022-12-22T12:44:04.587Z,2.18
2022-12-22T12:45:37.834Z,2.23
2022-12-22T12:46:56.468Z,2.21
2022-12-22T12:48:22.477Z,2.20
2022-12-22T12:49:33.854Z,2.21
2022-12-22T12:50:38.468Z,2.25
2022-12-22T12:51:49.759Z,2.27
2022-12-22T12:52:52.690Z,2.25
2022-12-22T12:54:23.360Z,2.32
2022-12-22T12:55:52.011Z,2.34
2022-12-22T12:57:11.885Z,2.39
2022-12-22T12:58:40.724Z,2.36
2022-12-22T12:59:43.880Z,2.38
2022-12-22T13:00:52.592Z,2.40
2022-12-22T13:02:01.636Z,2.41
2022-12-22T13:04:01.666Z,2.24
2022-12-22T13:05:14.679Z,2.23
2022-12-22T13:06:51.503Z,2.28
2022-12-22T13:08:26.949Z,2.28
2022-12-22T13:10:55.286Z,2.20
2022-12-22T13:12:53.502Z,2.16
2022-12-22T13:13:58.096Z,2.12
2022-12-22T13:15:02.194Z,2.20
2022-12-22T13:16:05.329Z,2.21
2022-12-22T13:17:34.742Z,2.19
2022-12-22T13:18:50.846Z,2.18
2022-12-22T13:19:56.056Z,2.17
2022-12-22T13:22:46.845Z,2.14
2022-12-22T13:24:23.659Z,2.17
2022-12-22T13:25:19.364Z,2.20
2022-12-22T13:26:36.002Z,2.18
2022-12-22T13:27:39.098Z,2.23
2022-12-22T13:28:56.153Z,2.24
2022-12-22T13:29:59.777Z,2.23
2022-12-22T13:31:12.914Z,2.22
2022-12-22T13:32:33.494Z,2.24
2022-12-22T13:33:39.565Z,2.23
2022-12-22T13:35:04.939Z,2.20
2022-12-22T13:36:08.873Z,2.20
2022-12-22T13:37:24.471Z,2.21
2022-12-22T13:38:30.375Z,2.17
2022-12-22T13:39:33.183Z,2.14
2022-12-22T13:40:46.083Z,2.10
2022-12-22T13:41:51.410Z,2.07
2022-12-22T13:43:00.056Z,2.10
2022-12-22T13:44:12.139Z,2.10
2022-12-22T13:45:27.809Z,2.05
2022-12-22T13:46:34.655Z,2.05
2022-12-22T13:47:42.231Z,2.08
2022-12-22T13:48:49.862Z,2.10
2022-12-22T13:50:08.379Z,2.02
2022-12-22T13:51:21.108Z,1.99
2022-12-22T13:52:24.332Z,2.05
2022-12-22T13:54:07.284Z,2.07
2022-12-22T13:54:57.873Z,1.99
2022-12-22T13:56:00.764Z,1.99
2022-12-22T13:57:11.966Z,1.98
2022-12-22T13:58:31.191Z,1.97
2022-12-22T13:59:39.543Z,1.94
2022-12-22T14:00:42.456Z,1.96
2022-12-22T14:01:50.692Z,1.93
2022-12-22T14:02:53.907Z,1.94
2022-12-22T14:04:04.526Z,1.92
2022-12-22T14:05:10.306Z,1.92
2022-12-22T14:06:33.430Z,1.95
2022-12-22T14:07:36.932Z,1.96
2022-12-22T14:08:40.467Z,1.98
2022-12-22T14:09:45.368Z,2.00
2022-12-22T14:10:48.922Z,1.99
2022-12-22T14:12:13.723Z,2.03
2022-12-22T14:13:20.844Z,2.03
2022-12-22T14:14:43.133Z,1.99
2022-12-22T14:15:46.780Z,2.01
2022-12-22T14:16:52.163Z,2.03
2022-12-22T14:17:55.135Z,2.00
2022-12-22T14:18:59.768Z,1.97
2022-12-22T14:20:17.758Z,1.98
2022-12-22T14:21:20.888Z,1.93
2022-12-22T14:22:48.035Z,1.91
2022-12-22T14:23:51.008Z,1.92
2022-12-22T14:25:16.853Z,1.93
2022-12-22T14:26:30.386Z,1.95
2022-12-22T14:27:40.667Z,1.93
2022-12-22T14:28:50.419Z,1.89
2022-12-22T14:29:53.486Z,1.87
2022-12-22T14:31:02.700Z,1.88
2022-12-22T14:32:05.771Z,1.85
2022-12-22T14:33:28.159Z,1.83
2022-12-22T14:34:34.959Z,1.82
2022-12-22T14:35:37.843Z,1.81
2022-12-22T14:36:46.183Z,1.80
2022-12-22T14:37:51.768Z,1.79
2022-12-22T14:39:03.696Z,1.78
2022-12-22T14:40:33.203Z,1.75
2022-12-22T14:41:51.839Z,1.75
2022-12-22T14:42:55.295Z,1.72
2022-12-22T14:43:59.300Z,1.69
2022-12-22T14:45:02.228Z,1.70
2022-12-22T14:46:09.090Z,1.70
2022-12-22T14:47:17.889Z,1.69
2022-12-22T14:48:35.111Z,1.70
2022-12-22T14:49:50.294Z,1.70
2022-12-22T14:50:55.332Z,1.70
2022-12-22T14:52:07.582Z,1.68
2022-12-22T14:53:14.272Z,1.67
2022-12-22T14:54:25.796Z,1.69
2022-12-22T14:55:35.197Z,1.69
2022-12-22T14:56:48.208Z,1.67
2022-12-22T14:57:55.027Z,1.66
2022-12-22T14:59:26.781Z,1.68
2022-12-22T15:00:35.072Z,1.68
2022-12-22T15:01:38.543Z,1.72
2022-12-22T15:02:50.785Z,1.72
2022-12-22T15:04:05.365Z,1.71
2022-12-22T15:05:13.233Z,1.69
2022-12-22T15:06:23.571Z,1.71
2022-12-22T15:08:55.037Z,1.69
2022-12-22T15:10:18.436Z,1.69
2022-12-22T15:11:24.457Z,1.68
2022-12-22T15:12:27.288Z,1.67
2022-12-22T15:13:30.823Z,1.68
2022-12-22T15:14:38.918Z,1.63
2022-12-22T15:15:42.282Z,1.66
2022-12-22T15:16:46.208Z,1.68
2022-12-22T15:17:52.079Z,1.71
2022-12-22T15:18:55.861Z,1.72
2022-12-22T15:19:59.826Z,1.76
2022-12-22T15:21:02.957Z,1.70
2022-12-22T15:22:08.518Z,1.69
2022-12-22T15:23:17.155Z,1.72
2022-12-22T15:24:20.140Z,1.71
2022-12-22T15:25:24.627Z,1.70
2022-12-22T15:26:28.901Z,1.69
2022-12-22T15:27:33.755Z,1.62
2022-12-22T15:28:37.070Z,1.57
2022-12-22T15:29:39.908Z,1.60
2022-12-22T15:30:43.205Z,1.61
2022-12-22T15:31:47.604Z,1.65
2022-12-22T15:32:50.790Z,1.60
2022-12-22T15:33:57.812Z,1.60
2022-12-22T15:35:03.389Z,1.62
2022-12-22T15:36:09.509Z,1.63
2022-12-22T15:37:12.939Z,1.67
2022-12-22T15:38:21.036Z,1.61
2022-12-22T15:39:24.716Z,1.62
2022-12-22T15:40:28.965Z,1.63
2022-12-22T15:41:31.784Z,1.60
2022-12-22T15:42:34.621Z,1.58
2022-12-22T15:43:57.331Z,1.53
2022-12-22T15:45:00.695Z,1.52
2022-12-22T15:46:06.054Z,1.53
2022-12-22T15:47:11.583Z,1.52
2022-12-22T15:48:23.570Z,1.50
2022-12-22T15:49:29.765Z,1.49
2022-12-22T15:50:40.600Z,1.50
2022-12-22T15:51:47.848Z,1.51
2022-12-22T15:53:02.201Z,1.51
2022-12-22T15:54:05.783Z,1.49
2022-12-22T15:55:14.889Z,1.44
2022-12-22T15:56:24.031Z,1.46
2022-12-22T15:57:27.086Z,1.50
2022-12-22T15:58:36.685Z,1.53
2022-12-22T15:59:39.977Z,1.53
2022-12-22T16:00:43.105Z,1.55
2022-12-22T16:01:46.385Z,1.56
2022-12-22T16:02:50.251Z,1.59